Time;durP1;ratioP1;P1;durP2;ratioP2;P2;SDS_P1;SDS_P2;PMS_P1;PMS_P2;Temp;Humidity;BMP_temperature;BMP_pressure;BME280_temperature;BME280_humidity;BME280_pressure;Samples;Min_cycle;Max_cycle;Signal;HPM_P1;HPM_P2
2024/02/26 00:01:52;;;;;;;1.60;1.40;;;8.00;98.20;;;;;;4872351;29;20658;-84
2024/02/26 00:04:19;;;;;;;1.57;1.23;;;8.00;98.20;;;;;;4878928;29;20487;-83
2024/02/26 00:06:46;;;;;;;1.60;1.30;;;8.00;98.20;;;;;;4863715;29;20555;-84
2024/02/26 00:09:12;;;;;;;1.60;1.30;;;8.10;98.20;;;;;;4873370;29;20491;-83
2024/02/26 00:11:39;;;;;;;2.80;2.60;;;8.10;98.20;;;;;;4869261;29;20470;-83
2024/02/26 00:14:06;;;;;;;1.53;1.20;;;8.10;98.20;;;;;;4880307;29;20578;-83
2024/02/26 00:16:34;;;;;;;1.60;1.20;;;8.10;98.20;;;;;;4863286;29;20586;-83
2024/02/26 00:19:01;;;;;;;1.57;1.20;;;8.10;98.20;;;;;;4876100;29;20490;-84
2024/02/26 00:21:28;;;;;;;1.53;1.20;;;8.10;98.20;;;;;;4864360;29;20501;-83
2024/02/26 00:23:55;;;;;;;1.57;1.20;;;8.00;98.20;;;;;;4874422;29;21073;-84
2024/02/26 00:26:22;;;;;;;1.57;1.20;;;8.00;98.20;;;;;;4855834;29;20575;-84
2024/02/26 00:28:49;;;;;;;1.57;1.20;;;8.00;98.20;;;;;;4866304;29;20557;-83
2024/02/26 00:31:16;;;;;;;1.57;1.20;;;8.00;98.20;;;;;;4864240;29;20545;-83
2024/02/26 00:33:44;;;;;;;1.57;1.30;;;8.00;98.20;;;;;;4882661;29;21026;-83
2024/02/26 00:36:11;;;;;;;1.60;1.20;;;8.00;98.20;;;;;;4855966;29;20497;-82
2024/02/26 00:38:39;;;;;;;1.57;1.30;;;7.90;98.20;;;;;;4864810;29;20476;-84
2024/02/26 00:41:06;;;;;;;1.57;1.20;;;7.90;98.20;;;;;;4860274;29;20487;-85
2024/02/26 00:43:32;;;;;;;1.57;1.30;;;7.90;98.20;;;;;;4881847;29;20645;-85
2024/02/26 00:45:59;;;;;;;1.57;1.20;;;7.80;98.20;;;;;;4859333;29;20463;-83
2024/02/26 00:48:26;;;;;;;1.60;1.20;;;7.80;98.20;;;;;;4864534;29;20472;-84
2024/02/26 00:50:54;;;;;;;1.53;1.30;;;7.80;98.20;;;;;;4850553;29;20468;-85
2024/02/26 00:53:21;;;;;;;1.60;1.30;;;7.70;98.20;;;;;;4875134;29;20586;-83
2024/02/26 00:55:48;;;;;;;1.60;1.40;;;7.70;98.20;;;;;;4855035;29;20499;-84
2024/02/26 00:58:14;;;;;;;1.57;1.27;;;7.70;98.20;;;;;;4863659;29;20836;-83
2024/02/26 01:00:41;;;;;;;1.60;1.20;;;7.70;98.20;;;;;;4867464;29;20661;-84
2024/02/26 01:03:09;;;;;;;1.50;1.20;;;7.70;98.20;;;;;;4872842;29;20483;-86
2024/02/26 01:05:37;;;;;;;1.50;1.20;;;7.70;98.20;;;;;;4869966;29;20559;-84
2024/02/26 01:08:06;;;;;;;1.60;1.30;;;7.60;98.20;;;;;;4857962;29;20943;-86
2024/02/26 01:10:33;;;;;;;1.60;1.30;;;7.60;98.20;;;;;;4870684;29;20531;-86
2024/02/26 01:13:00;;;;;;;1.60;1.30;;;7.60;98.20;;;;;;4873976;29;20497;-86
2024/02/26 01:15:27;;;;;;;1.60;1.20;;;7.60;98.20;;;;;;4869879;29;20501;-86
2024/02/26 01:17:54;;;;;;;1.57;1.20;;;7.60;98.20;;;;;;4856711;29;20483;-85
2024/02/26 01:20:21;;;;;;;1.53;1.20;;;7.60;98.20;;;;;;4865413;29;20624;-86
2024/02/26 01:22:48;;;;;;;1.53;1.20;;;7.60;98.20;;;;;;4868209;29;20504;-85
2024/02/26 01:25:16;;;;;;;1.50;1.20;;;7.60;98.20;;;;;;4863190;29;20487;-85
2024/02/26 01:27:44;;;;;;;1.57;1.30;;;7.60;98.20;;;;;;4865950;29;20478;-84
2024/02/26 01:30:11;;;;;;;1.60;1.30;;;7.60;98.20;;;;;;4862212;29;20463;-86
2024/02/26 01:32:38;;;;;;;1.50;1.20;;;7.60;98.20;;;;;;4865628;29;20486;-84
2024/02/26 01:35:07;;;;;;;1.53;1.17;;;7.60;98.20;;;;;;4865063;29;20503;-86
2024/02/26 01:37:34;;;;;;;1.53;1.20;;;7.60;98.20;;;;;;4850525;29;20479;-83
2024/02/26 01:40:03;;;;;;;1.60;1.40;;;7.60;98.20;;;;;;4863307;29;20473;-85
2024/02/26 01:42:32;;;;;;;1.57;1.27;;;7.50;98.20;;;;;;4864928;29;20482;-84
2024/02/26 01:44:59;;;;;;;1.57;1.27;;;7.50;98.20;;;;;;4864429;29;20483;-86
2024/02/26 01:47:28;;;;;;;1.60;1.30;;;7.50;98.20;;;;;;4860280;29;20493;-85
2024/02/26 01:49:55;;;;;;;1.60;1.30;;;7.50;98.20;;;;;;4864793;29;20495;-83
2024/02/26 01:52:22;;;;;;;1.60;1.30;;;7.50;98.20;;;;;;4857573;29;20482;-83
2024/02/26 01:54:49;;;;;;;1.50;1.20;;;7.40;98.20;;;;;;4865572;29;20503;-85
2024/02/26 01:57:18;;;;;;;1.60;1.27;;;7.40;98.20;;;;;;4850086;29;21026;-84
2024/02/26 01:59:46;;;;;;;1.50;1.20;;;7.40;98.20;;;;;;4863176;29;20558;-85
2024/02/26 02:02:14;;;;;;;1.53;1.20;;;7.40;98.20;;;;;;4864513;29;20493;-85
2024/02/26 02:04:41;;;;;;;1.53;1.20;;;7.30;98.20;;;;;;4867648;29;20487;-86
2024/02/26 02:07:08;;;;;;;1.57;1.20;;;7.30;98.20;;;;;;4862458;29;20502;-86
2024/02/26 02:09:35;;;;;;;1.50;1.20;;;7.30;98.20;;;;;;4870837;29;20477;-86
2024/02/26 02:12:02;;;;;;;1.60;1.30;;;7.30;98.20;;;;;;4864857;29;20494;-86
2024/02/26 02:14:29;;;;;;;1.57;1.30;;;7.30;98.20;;;;;;4872278;29;20638;-86
2024/02/26 02:16:57;;;;;;;1.57;1.23;;;7.30;98.20;;;;;;4857337;29;20542;-83
2024/02/26 02:19:24;;;;;;;1.57;1.27;;;7.30;98.20;;;;;;4873769;29;20462;-86
2024/02/26 02:21:52;;;;;;;1.50;1.20;;;7.20;98.20;;;;;;4867155;29;20482;-85
2024/02/26 02:24:19;;;;;;;1.50;1.20;;;7.20;98.20;;;;;;4871133;29;20495;-86
2024/02/26 02:26:46;;;;;;;1.53;1.20;;;7.20;98.20;;;;;;4856411;29;20687;-85
2024/02/26 02:29:13;;;;;;;1.57;1.20;;;7.20;98.20;;;;;;4865600;29;20543;-85
2024/02/26 02:31:40;;;;;;;1.57;1.30;;;7.20;98.20;;;;;;4861418;29;20492;-84
2024/02/26 02:34:07;;;;;;;1.53;1.20;;;7.20;98.20;;;;;;4872188;29;20496;-85
2024/02/26 02:36:34;;;;;;;1.60;1.20;;;7.20;98.20;;;;;;4859216;29;20518;-83
2024/02/26 02:39:03;;;;;;;1.57;1.20;;;7.10;98.20;;;;;;4869803;29;20963;-86
2024/02/26 02:41:30;;;;;;;1.60;1.40;;;7.10;98.20;;;;;;4850964;29;20509;-85
2024/02/26 02:43:57;;;;;;;2.70;2.50;;;7.20;98.20;;;;;;4868753;29;21001;-86
2024/02/26 02:46:24;;;;;;;1.57;1.30;;;7.10;98.20;;;;;;4852813;29;21145;-84
2024/02/26 02:48:51;;;;;;;1.53;1.30;;;7.10;98.20;;;;;;4865907;29;20469;-84
2024/02/26 02:51:17;;;;;;;1.50;1.20;;;7.10;98.20;;;;;;4860672;29;20485;-85
2024/02/26 02:53:44;;;;;;;1.60;1.40;;;7.10;98.20;;;;;;4869526;29;20581;-85
2024/02/26 02:56:12;;;;;;;1.57;1.20;;;7.10;98.20;;;;;;4853351;29;20723;-85
2024/02/26 02:58:39;;;;;;;1.57;1.20;;;7.10;98.20;;;;;;4863049;29;20483;-83
2024/02/26 03:01:06;;;;;;;1.53;1.20;;;7.10;98.20;;;;;;4857250;29;20523;-84
2024/02/26 03:03:33;;;;;;;1.60;1.30;;;7.10;98.20;;;;;;4872873;29;20551;-83
2024/02/26 03:05:59;;;;;;;1.53;1.20;;;7.10;98.20;;;;;;4853659;29;20463;-84
2024/02/26 03:08:26;;;;;;;1.60;1.30;;;7.10;98.20;;;;;;4860267;29;20503;-84
2024/02/26 03:10:53;;;;;;;1.50;1.20;;;7.10;98.20;;;;;;4855530;29;20478;-84
2024/02/26 03:13:21;;;;;;;1.60;1.27;;;7.10;98.20;;;;;;4873481;29;20563;-83
2024/02/26 03:15:48;;;;;;;1.60;1.20;;;7.10;98.20;;;;;;4859185;29;20582;-85
2024/02/26 03:18:15;;;;;;;1.60;1.20;;;7.10;98.20;;;;;;4867419;29;20535;-84
2024/02/26 03:20:42;;;;;;;1.60;1.20;;;7.10;98.20;;;;;;4867835;29;20499;-83
2024/02/26 03:23:12;;;;;;;1.60;1.20;;;7.10;98.20;;;;;;4872512;29;20492;-84
2024/02/26 03:25:39;;;;;;;1.53;1.20;;;7.10;98.20;;;;;;4868616;29;20663;-86
2024/02/26 03:28:07;;;;;;;1.60;1.20;;;7.10;98.20;;;;;;4854497;29;20496;-84
2024/02/26 03:30:35;;;;;;;1.57;1.20;;;7.10;98.20;;;;;;4865589;29;20563;-83
2024/02/26 03:33:02;;;;;;;1.60;1.30;;;7.10;98.20;;;;;;4868810;29;20549;-84
2024/02/26 03:35:29;;;;;;;1.53;1.20;;;7.10;98.20;;;;;;4865077;29;20499;-83
2024/02/26 03:37:56;;;;;;;1.57;1.20;;;7.10;98.20;;;;;;4869236;29;20518;-83
2024/02/26 03:40:22;;;;;;;1.53;1.10;;;7.10;98.20;;;;;;4864963;29;20477;-82
2024/02/26 03:42:49;;;;;;;1.53;1.20;;;7.10;98.20;;;;;;4867218;29;20558;-82
2024/02/26 03:45:16;;;;;;;1.53;1.23;;;7.10;98.20;;;;;;4862622;29;20484;-82
2024/02/26 03:47:45;;;;;;;1.60;1.30;;;7.10;98.20;;;;;;4851106;29;20581;-83
2024/02/26 03:50:12;;;;;;;1.53;1.27;;;7.10;98.20;;;;;;4864404;29;20475;-83
2024/02/26 03:52:39;;;;;;;1.57;1.27;;;7.10;98.20;;;;;;4867056;29;20517;-84
2024/02/26 03:55:06;;;;;;;1.53;1.20;;;7.10;98.20;;;;;;4864411;29;20499;-84
2024/02/26 03:57:33;;;;;;;1.50;1.30;;;7.10;98.20;;;;;;4853693;29;20578;-85
2024/02/26 04:00:00;;;;;;;1.50;1.20;;;7.10;98.20;;;;;;4866784;29;20482;-84
2024/02/26 04:02:26;;;;;;;1.57;1.20;;;7.10;98.20;;;;;;4867858;29;20484;-85
2024/02/26 04:04:55;;;;;;;1.60;1.30;;;7.10;98.20;;;;;;4870059;29;20475;-85
2024/02/26 04:07:21;;;;;;;1.60;1.30;;;7.00;98.20;;;;;;4855511;29;20487;-84
2024/02/26 04:09:48;;;;;;;1.57;1.30;;;7.10;98.20;;;;;;4870062;29;20578;-84
2024/02/26 04:12:15;;;;;;;1.60;1.40;;;7.10;98.20;;;;;;4870561;29;20498;-83
2024/02/26 04:14:42;;;;;;;1.60;1.40;;;7.00;98.20;;;;;;4870065;29;20522;-84
2024/02/26 04:17:08;;;;;;;1.57;1.20;;;7.10;98.20;;;;;;4866291;29;20565;-85
2024/02/26 04:19:35;;;;;;;1.53;1.30;;;7.10;98.20;;;;;;4868928;29;20788;-84
2024/02/26 04:22:04;;;;;;;1.60;1.30;;;7.10;98.20;;;;;;4865220;29;20482;-83
2024/02/26 04:24:30;;;;;;;1.57;1.20;;;7.00;98.20;;;;;;4876070;29;20491;-83
2024/02/26 04:26:57;;;;;;;1.57;1.20;;;7.00;98.20;;;;;;4858045;29;20487;-83
2024/02/26 04:29:24;;;;;;;1.60;1.30;;;7.10;98.20;;;;;;4869793;29;20542;-85
2024/02/26 04:31:51;;;;;;;1.53;1.20;;;7.10;98.20;;;;;;4870514;29;20478;-83
2024/02/26 04:34:18;;;;;;;1.50;1.20;;;7.10;98.20;;;;;;4885033;29;20554;-83
2024/02/26 04:36:45;;;;;;;1.50;1.20;;;7.10;98.20;;;;;;4857937;29;20509;-85
2024/02/26 04:39:13;;;;;;;1.53;1.20;;;7.10;98.20;;;;;;4862787;29;20535;-85
2024/02/26 04:41:40;;;;;;;1.57;1.30;;;7.10;98.20;;;;;;4863985;29;20493;-84
2024/02/26 04:44:06;;;;;;;1.57;1.30;;;7.10;98.20;;;;;;4874691;29;20519;-84
2024/02/26 04:46:33;;;;;;;1.50;1.20;;;7.10;98.20;;;;;;4851412;29;20600;-85
2024/02/26 04:49:00;;;;;;;1.57;1.20;;;7.10;98.20;;;;;;4860688;29;20567;-84
2024/02/26 04:51:27;;;;;;;1.53;1.20;;;7.10;98.20;;;;;;4850041;29;20508;-83
2024/02/26 04:53:54;;;;;;;1.57;1.30;;;7.00;98.20;;;;;;4865986;29;20498;-84
2024/02/26 04:56:23;;;;;;;1.53;1.20;;;7.00;98.20;;;;;;4847696;29;20523;-84
2024/02/26 04:58:49;;;;;;;1.60;1.30;;;7.00;98.20;;;;;;4857944;29;20483;-84
2024/02/26 05:01:17;;;;;;;1.60;1.30;;;7.00;98.20;;;;;;4849488;29;20853;-83
2024/02/26 05:03:44;;;;;;;1.60;1.20;;;7.00;98.20;;;;;;4857176;29;20947;-83
2024/02/26 05:06:10;;;;;;;1.60;1.30;;;6.90;98.20;;;;;;4847111;29;20487;-84
2024/02/26 05:08:38;;;;;;;1.57;1.20;;;6.90;98.20;;;;;;4855278;29;20481;-83
2024/02/26 05:11:05;;;;;;;1.60;1.30;;;6.90;98.20;;;;;;4847368;29;20814;-83
2024/02/26 05:13:33;;;;;;;1.57;1.20;;;6.90;98.20;;;;;;4863612;29;20503;-83
2024/02/26 05:16:01;;;;;;;1.60;1.20;;;6.90;98.20;;;;;;4847382;29;20503;-83
2024/02/26 05:18:28;;;;;;;1.57;1.20;;;6.90;98.20;;;;;;4857659;29;20471;-84
2024/02/26 05:20:55;;;;;;;1.60;1.20;;;6.90;98.20;;;;;;4848842;29;20479;-84
2024/02/26 05:23:22;;;;;;;1.60;1.40;;;6.90;98.20;;;;;;4866354;29;20492;-84
2024/02/26 05:25:50;;;;;;;1.60;1.50;;;7.00;98.20;;;;;;4842874;29;21014;-84
2024/02/26 05:28:20;;;;;;;1.53;1.20;;;7.00;98.20;;;;;;4855774;29;20551;-84
2024/02/26 05:30:48;;;;;;;1.57;1.10;;;7.00;98.20;;;;;;4848652;29;20527;-82
2024/02/26 05:33:15;;;;;;;1.57;1.30;;;7.00;98.20;;;;;;4870906;29;20476;-85
2024/02/26 05:35:42;;;;;;;1.60;1.40;;;7.00;98.20;;;;;;4856660;29;20467;-85
2024/02/26 05:38:09;;;;;;;1.60;1.33;;;7.00;98.20;;;;;;4862427;29;20503;-83
2024/02/26 05:40:36;;;;;;;1.60;1.30;;;7.00;98.20;;;;;;4855671;29;20475;-84
2024/02/26 05:43:03;;;;;;;1.60;1.30;;;7.00;98.20;;;;;;4865851;29;20498;-84
2024/02/26 05:45:30;;;;;;;1.60;1.40;;;7.00;98.20;;;;;;4863479;29;20494;-84
2024/02/26 05:47:58;;;;;;;1.57;1.20;;;6.90;98.20;;;;;;4853712;29;20491;-84
2024/02/26 05:50:25;;;;;;;1.60;1.30;;;7.00;98.20;;;;;;4863052;29;20547;-83
2024/02/26 05:52:52;;;;;;;1.60;1.30;;;6.90;98.20;;;;;;4868079;29;20482;-84
2024/02/26 05:55:19;;;;;;;1.53;1.20;;;6.90;98.20;;;;;;4864825;29;20964;-82
2024/02/26 05:57:45;;;;;;;1.60;1.30;;;6.90;98.20;;;;;;4861795;29;20491;-82
2024/02/26 06:00:13;;;;;;;1.60;1.30;;;6.90;98.20;;;;;;4861441;29;20857;-84
2024/02/26 06:02:40;;;;;;;1.53;1.20;;;6.90;98.20;;;;;;4868159;29;20486;-83
2024/02/26 06:05:09;;;;;;;1.60;1.30;;;6.90;98.20;;;;;;4862808;29;21023;-86
2024/02/26 06:07:36;;;;;;;1.57;1.20;;;6.90;98.20;;;;;;4860566;29;21014;-82
2024/02/26 06:10:04;;;;;;;1.57;1.20;;;6.90;98.20;;;;;;4858795;29;20531;-84
2024/02/26 06:12:32;;;;;;;1.60;1.20;;;6.90;98.20;;;;;;4865438;29;20482;-82
2024/02/26 06:15:00;;;;;;;1.57;1.27;;;6.80;98.20;;;;;;4862582;29;20854;-84
2024/02/26 06:17:27;;;;;;;1.60;1.40;;;6.80;98.20;;;;;;4850629;29;20489;-83
2024/02/26 06:19:54;;;;;;;1.57;1.30;;;6.80;98.20;;;;;;4863163;29;20923;-83
2024/02/26 06:22:22;;;;;;;1.60;1.30;;;6.70;98.20;;;;;;4866208;29;20554;-83
2024/02/26 06:24:49;;;;;;;1.60;1.20;;;6.70;98.20;;;;;;4867186;29;20560;-82
2024/02/26 06:27:16;;;;;;;1.60;1.30;;;6.70;98.20;;;;;;4860781;29;20673;-84
2024/02/26 06:29:43;;;;;;;1.57;1.30;;;6.70;98.20;;;;;;4866666;29;20474;-83
2024/02/26 06:32:10;;;;;;;1.60;1.33;;;6.60;98.20;;;;;;4863268;29;20569;-82
2024/02/26 06:34:38;;;;;;;1.60;1.30;;;6.60;98.20;;;;;;4863606;29;20518;-81
2024/02/26 06:37:05;;;;;;;1.60;1.30;;;6.60;98.20;;;;;;4850547;29;20490;-81
2024/02/26 06:39:33;;;;;;;1.60;1.20;;;6.60;98.20;;;;;;4862339;29;21022;-81
2024/02/26 06:42:01;;;;;;;1.57;1.30;;;6.60;98.20;;;;;;4852797;29;20524;-80
2024/02/26 06:44:31;;;;;;;1.60;1.30;;;6.60;98.20;;;;;;4860237;29;20488;-80
2024/02/26 06:46:59;;;;;;;1.60;1.30;;;6.60;98.20;;;;;;4857765;29;20487;-79
2024/02/26 06:49:26;;;;;;;1.57;1.30;;;6.50;98.20;;;;;;4878333;29;20475;-80
2024/02/26 06:51:53;;;;;;;1.53;1.20;;;6.50;98.20;;;;;;4850495;29;20576;-81
2024/02/26 06:54:20;;;;;;;1.53;1.20;;;6.50;98.20;;;;;;4860669;29;20709;-80
2024/02/26 06:56:48;;;;;;;1.60;1.30;;;6.50;98.20;;;;;;4852396;29;20486;-80
2024/02/26 06:59:15;;;;;;;1.60;1.30;;;6.50;98.20;;;;;;4865259;29;21023;-78
2024/02/26 07:01:43;;;;;;;1.60;1.30;;;6.50;98.20;;;;;;4852820;29;20489;-80
2024/02/26 07:04:10;;;;;;;1.60;1.20;;;6.40;98.20;;;;;;4863291;29;20928;-80
2024/02/26 07:06:37;;;;;;;1.57;1.30;;;6.50;98.20;;;;;;4853677;29;20486;-82
2024/02/26 07:09:04;;;;;;;1.60;1.30;;;6.50;98.20;;;;;;4864519;29;20558;-80
2024/02/26 07:11:31;;;;;;;1.53;1.30;;;6.40;98.20;;;;;;4850298;29;20869;-80
2024/02/26 07:14:00;;;;;;;1.57;1.20;;;6.40;98.20;;;;;;4863154;29;20861;-82
2024/02/26 07:16:27;;;;;;;1.57;1.20;;;6.40;98.20;;;;;;4849548;29;21057;-82
2024/02/26 07:18:55;;;;;;;1.60;1.20;;;6.40;98.20;;;;;;4859229;29;20803;-81
2024/02/26 07:21:21;;;;;;;1.60;1.40;;;6.40;98.20;;;;;;4847660;29;20513;-81
2024/02/26 07:23:48;;;;;;;1.57;1.20;;;6.40;98.20;;;;;;4864204;29;20492;-80
2024/02/26 07:26:17;;;;;;;1.60;1.30;;;6.40;98.20;;;;;;4847736;29;20530;-81
2024/02/26 07:28:44;;;;;;;1.57;1.20;;;6.40;98.20;;;;;;4863719;29;20476;-81
2024/02/26 07:31:12;;;;;;;1.60;1.20;;;6.40;98.20;;;;;;4847040;29;20521;-81
2024/02/26 07:33:39;;;;;;;1.57;1.20;;;6.40;98.20;;;;;;4862483;29;20499;-82
2024/02/26 07:36:06;;;;;;;1.53;1.30;;;6.40;98.20;;;;;;4847670;29;20467;-81
2024/02/26 07:38:33;;;;;;;3.20;2.63;;;6.40;98.20;;;;;;4865943;29;20534;-80
2024/02/26 07:41:00;;;;;;;1.57;1.30;;;6.40;98.20;;;;;;4844745;29;20563;-81
2024/02/26 07:43:27;;;;;;;1.60;1.40;;;6.40;98.20;;;;;;4863765;29;20775;-81
2024/02/26 07:45:54;;;;;;;1.60;1.30;;;6.40;98.20;;;;;;4847158;29;20535;-79
2024/02/26 07:48:22;;;;;;;1.60;1.40;;;6.40;98.20;;;;;;4865731;29;20850;-80
2024/02/26 07:50:49;;;;;;;1.60;1.30;;;6.50;98.20;;;;;;4844163;29;20921;-81
2024/02/26 07:53:16;;;;;;;1.60;1.30;;;6.50;98.20;;;;;;4867507;29;20471;-79
2024/02/26 07:55:43;;;;;;;1.60;1.30;;;6.50;98.20;;;;;;4853839;29;20471;-79
2024/02/26 07:58:10;;;;;;;1.60;1.20;;;6.50;98.20;;;;;;4855581;29;20574;-79
2024/02/26 08:00:37;;;;;;;1.57;1.30;;;6.50;98.20;;;;;;4848088;29;20475;-80
2024/02/26 08:03:04;;;;;;;1.60;1.20;;;6.50;98.20;;;;;;4856926;29;20822;-78
2024/02/26 08:05:32;;;;;;;1.57;1.20;;;6.60;98.20;;;;;;4851066;29;20554;-79
2024/02/26 08:07:59;;;;;;;1.60;1.30;;;6.60;98.20;;;;;;4858049;29;20521;-79
2024/02/26 08:10:26;;;;;;;1.53;1.20;;;6.60;98.20;;;;;;4851230;29;20467;-79
2024/02/26 08:12:53;;;;;;;1.57;1.30;;;6.60;98.20;;;;;;4853680;29;20521;-79
2024/02/26 08:15:20;;;;;;;1.60;1.20;;;6.70;98.20;;;;;;4850384;29;20499;-79
2024/02/26 08:17:47;;;;;;;1.60;1.30;;;6.70;98.20;;;;;;4857890;29;20487;-78
2024/02/26 08:20:14;;;;;;;1.60;1.30;;;6.70;98.20;;;;;;4853220;29;20499;-78
2024/02/26 08:22:43;;;;;;;1.60;1.40;;;6.70;98.20;;;;;;4855786;29;21348;-79
2024/02/26 08:25:11;;;;;;;1.60;1.30;;;6.70;98.20;;;;;;4850227;29;20495;-80
2024/02/26 08:27:38;;;;;;;1.60;1.27;;;6.70;98.20;;;;;;4850688;29;20529;-80
2024/02/26 08:30:05;;;;;;;1.60;1.30;;;6.70;98.20;;;;;;4853153;29;20498;-80
2024/02/26 08:32:32;;;;;;;1.60;1.20;;;6.70;98.20;;;;;;4854447;29;20523;-80
2024/02/26 08:34:59;;;;;;;1.60;1.43;;;6.70;98.20;;;;;;4854575;29;20494;-79
2024/02/26 08:37:27;;;;;;;1.60;1.30;;;6.70;98.20;;;;;;4857475;29;20490;-81
2024/02/26 08:39:55;;;;;;;1.60;1.30;;;6.70;98.20;;;;;;4854192;29;20479;-79
2024/02/26 08:42:24;;;;;;;1.60;1.40;;;6.70;98.20;;;;;;4853901;29;20518;-81
2024/02/26 08:44:51;;;;;;;1.60;1.27;;;6.80;98.20;;;;;;4853882;29;20495;-79
2024/02/26 08:47:17;;;;;;;1.50;1.20;;;6.80;98.20;;;;;;4851319;29;20641;-78
2024/02/26 08:49:46;;;;;;;1.57;1.30;;;6.80;98.20;;;;;;4857294;29;20475;-80
2024/02/26 08:52:13;;;;;;;1.60;1.23;;;6.80;98.20;;;;;;4850971;29;20498;-81
2024/02/26 08:54:40;;;;;;;1.60;1.20;;;6.80;98.20;;;;;;4854505;29;20491;-80
2024/02/26 08:57:09;;;;;;;1.60;1.47;;;6.80;98.20;;;;;;4852298;29;20583;-82
2024/02/26 08:59:36;;;;;;;1.60;1.30;;;6.70;98.20;;;;;;4861322;29;20471;-81
2024/02/26 09:02:03;;;;;;;1.57;1.20;;;6.70;98.20;;;;;;4850230;29;20494;-80
2024/02/26 09:04:30;;;;;;;1.53;1.30;;;6.80;98.20;;;;;;4852914;29;20484;-80
2024/02/26 09:06:57;;;;;;;1.60;1.30;;;6.80;98.20;;;;;;4852872;29;20490;-82
2024/02/26 09:09:26;;;;;;;1.50;1.20;;;6.80;98.20;;;;;;4857273;29;20471;-80
2024/02/26 09:11:54;;;;;;;1.57;1.20;;;6.80;98.20;;;;;;4848167;29;20484;-79
2024/02/26 09:14:23;;;;;;;1.60;1.30;;;6.80;98.20;;;;;;4856801;29;20585;-79
2024/02/26 09:16:51;;;;;;;1.60;1.20;;;6.80;98.20;;;;;;4848263;29;20502;-81
2024/02/26 09:19:18;;;;;;;1.53;1.20;;;6.80;98.20;;;;;;4859134;29;20526;-80
2024/02/26 09:21:45;;;;;;;1.60;1.30;;;6.80;98.20;;;;;;4850986;29;20502;-80
2024/02/26 09:24:13;;;;;;;1.60;1.30;;;6.80;98.20;;;;;;4862802;29;21010;-80
2024/02/26 09:26:40;;;;;;;1.60;1.30;;;6.80;98.20;;;;;;4849727;29;20606;-80
2024/02/26 09:29:08;;;;;;;1.60;1.30;;;6.80;98.20;;;;;;4856643;29;20568;-81
2024/02/26 09:31:36;;;;;;;1.60;1.30;;;6.80;98.20;;;;;;4851254;29;20490;-79
2024/02/26 09:34:03;;;;;;;1.60;1.30;;;6.80;98.20;;;;;;4862605;29;20515;-80
2024/02/26 09:36:33;;;;;;;1.60;1.30;;;6.80;98.20;;;;;;4857050;29;20527;-80
2024/02/26 09:39:00;;;;;;;1.50;1.30;;;6.80;98.20;;;;;;4867489;29;20503;-81
2024/02/26 09:41:29;;;;;;;1.60;1.40;;;6.80;98.20;;;;;;4850566;29;20486;-80
2024/02/26 09:43:59;;;;;;;1.60;1.30;;;6.80;98.20;;;;;;4861337;29;20502;-80
2024/02/26 09:46:26;;;;;;;1.57;1.20;;;6.90;98.20;;;;;;4841799;29;20585;-81
2024/02/26 09:48:55;;;;;;;1.60;1.20;;;6.90;98.20;;;;;;4851462;29;20467;-80
2024/02/26 09:51:24;;;;;;;1.60;1.30;;;6.90;98.20;;;;;;4843762;29;20502;-80
2024/02/26 09:53:53;;;;;;;1.60;1.33;;;7.00;98.20;;;;;;4847949;29;21013;-79
2024/02/26 09:56:20;;;;;;;1.60;1.30;;;7.00;98.20;;;;;;4846772;29;20502;-79
2024/02/26 09:58:51;;;;;;;1.60;1.20;;;7.00;98.20;;;;;;4863994;29;20585;-80
2024/02/26 10:01:20;;;;;;;1.57;1.20;;;7.00;98.20;;;;;;4848781;29;20536;-81
2024/02/26 10:03:52;;;;;;;1.60;1.33;;;7.00;98.20;;;;;;4864113;29;20487;-81
2024/02/26 10:06:21;;;;;;;1.60;1.50;;;7.00;98.20;;;;;;4848794;29;20934;-79
2024/02/26 10:08:49;;;;;;;1.57;1.30;;;7.00;98.20;;;;;;4867089;29;20492;-81
2024/02/26 10:11:16;;;;;;;1.57;1.30;;;7.00;98.20;;;;;;4849435;29;20486;-81
2024/02/26 10:13:44;;;;;;;8.43;8.00;;;7.00;98.20;;;;;;4864740;29;20487;-80
2024/02/26 10:16:11;;;;;;;1.60;1.20;;;7.00;98.20;;;;;;4849037;29;20487;-81
2024/02/26 10:18:48;;;;;;;1.60;1.30;;;7.10;98.20;;;;;;4865954;29;20502;-81
2024/02/26 10:21:17;;;;;;;1.57;1.20;;;7.10;98.20;;;;;;4847234;29;20517;-79
2024/02/26 10:23:47;;;;;;;1.60;1.30;;;7.10;98.20;;;;;;4865028;29;20855;-80
2024/02/26 10:26:15;;;;;;;1.53;1.20;;;7.10;98.20;;;;;;4851126;29;20490;-80
2024/02/26 10:28:43;;;;;;;1.60;1.40;;;7.10;98.20;;;;;;4864728;29;20463;-79
2024/02/26 10:31:11;;;;;;;1.60;1.37;;;7.10;98.20;;;;;;4843681;29;20574;-79
2024/02/26 10:33:40;;;;;;;1.60;1.20;;;7.10;98.20;;;;;;4862399;29;20498;-79
2024/02/26 10:36:08;;;;;;;1.60;1.30;;;7.20;98.20;;;;;;4848621;29;20483;-80
2024/02/26 10:38:36;;;;;;;1.60;1.30;;;7.20;98.20;;;;;;4866083;29;20996;-80
2024/02/26 10:41:05;;;;;;;1.60;1.30;;;7.20;98.20;;;;;;4849445;29;20511;-81
2024/02/26 10:43:32;;;;;;;1.60;1.20;;;7.20;98.20;;;;;;4869654;29;20487;-80
2024/02/26 10:45:59;;;;;;;1.60;1.30;;;7.20;98.20;;;;;;4849113;29;20468;-82
2024/02/26 10:48:26;;;;;;;1.57;1.20;;;7.20;98.20;;;;;;4852713;29;20498;-80
2024/02/26 10:50:53;;;;;;;1.60;1.30;;;7.30;98.20;;;;;;4854215;29;21890;-79
2024/02/26 10:53:22;;;;;;;1.60;1.20;;;7.30;98.20;;;;;;4871262;29;20464;-80
2024/02/26 10:55:54;;;;;;;1.60;1.30;;;7.30;98.20;;;;;;4846958;29;20950;-81
2024/02/26 10:58:24;;;;;;;1.60;1.20;;;7.40;98.20;;;;;;4859712;29;20508;-80
2024/02/26 11:00:53;;;;;;;1.60;1.30;;;7.40;98.20;;;;;;4846680;29;20478;-80
2024/02/26 11:03:21;;;;;;;1.77;1.67;;;7.50;98.20;;;;;;4861116;29;20476;-80
2024/02/26 11:05:49;;;;;;;1.57;1.20;;;7.60;98.20;;;;;;4851699;29;20495;-81
2024/02/26 11:08:19;;;;;;;1.60;1.20;;;7.60;98.20;;;;;;4879895;29;20533;-79
2024/02/26 11:10:49;;;;;;;1.60;1.20;;;7.60;98.20;;;;;;4863164;29;20472;-80
2024/02/26 11:13:18;;;;;;;1.60;1.30;;;7.60;98.20;;;;;;4845867;29;21150;-78
2024/02/26 11:15:48;;;;;;;1.60;1.30;;;7.60;98.20;;;;;;4854731;29;20482;-79
2024/02/26 11:18:16;;;;;;;2.90;2.70;;;7.60;98.20;;;;;;4843114;29;20943;-80
2024/02/26 11:20:44;;;;;;;1.60;1.33;;;7.60;98.20;;;;;;4854627;29;20518;-78
2024/02/26 11:23:11;;;;;;;1.60;1.20;;;7.60;98.20;;;;;;4851093;29;20500;-79
2024/02/26 11:25:39;;;;;;;3.00;2.80;;;7.60;98.20;;;;;;4858983;29;20527;-80
2024/02/26 11:28:10;;;;;;;1.57;1.20;;;7.70;98.20;;;;;;4859295;29;20486;-80
2024/02/26 11:30:42;;;;;;;1.60;1.30;;;7.70;98.20;;;;;;4858060;29;20506;-80
2024/02/26 11:33:12;;;;;;;1.53;1.20;;;7.70;98.20;;;;;;4858050;29;20560;-80
2024/02/26 11:35:39;;;;;;;1.60;1.20;;;7.80;98.20;;;;;;4856944;29;20479;-79
2024/02/26 11:38:07;;;;;;;1.60;1.20;;;7.80;98.20;;;;;;4861712;29;20577;-79
2024/02/26 11:40:39;;;;;;;1.60;1.30;;;7.80;98.20;;;;;;4853745;29;20470;-79
2024/02/26 11:43:06;;;;;;;1.60;1.20;;;7.80;98.20;;;;;;4856927;29;20535;-79
2024/02/26 11:45:51;;;;;;;1.60;1.20;;;7.90;98.20;;;;;;4856204;29;20467;-78
2024/02/26 11:48:24;;;;;;;1.60;1.40;;;7.90;98.20;;;;;;4847030;29;20899;-80
2024/02/26 11:50:52;;;;;;;1.60;1.30;;;7.90;98.20;;;;;;4842002;29;20473;-79
2024/02/26 11:53:25;;;;;;;1.60;1.20;;;8.00;98.20;;;;;;4870276;29;20507;-78
2024/02/26 11:56:14;;;;;;;1.60;1.30;;;8.10;98.20;;;;;;4846374;29;20550;-78
2024/02/26 11:58:41;;;;;;;1.60;1.20;;;8.10;98.20;;;;;;4861875;29;20491;-79
2024/02/26 12:01:42;;;;;;;1.57;1.20;;;8.00;98.20;;;;;;4849948;29;20484;-78
2024/02/26 12:04:14;;;;;;;1.60;1.20;;;8.00;98.20;;;;;;4864087;29;20498;-79
2024/02/26 12:06:43;;;;;;;1.60;1.20;;;8.00;98.20;;;;;;4850464;29;20490;-80
2024/02/26 12:09:10;;;;;;;1.60;1.20;;;8.00;98.20;;;;;;4863248;29;20475;-78
2024/02/26 12:11:39;;;;;;;1.60;1.30;;;8.00;98.20;;;;;;4847619;29;20887;-79
2024/02/26 12:14:08;;;;;;;1.60;1.20;;;8.00;98.20;;;;;;4859415;29;20578;-80
2024/02/26 12:16:39;;;;;;;1.60;1.30;;;8.00;98.20;;;;;;4849753;29;21025;-80
2024/02/26 12:19:07;;;;;;;1.60;1.20;;;8.00;98.20;;;;;;4863012;29;20507;-78
2024/02/26 12:21:37;;;;;;;1.60;1.20;;;8.00;98.20;;;;;;4851086;29;20494;-81
2024/02/26 12:24:13;;;;;;;1.60;1.20;;;8.00;98.20;;;;;;4856542;29;20491;-79
2024/02/26 12:26:40;;;;;;;1.60;1.20;;;8.00;98.20;;;;;;4845038;29;20486;-80
2024/02/26 12:29:08;;;;;;;1.60;1.20;;;8.00;98.20;;;;;;4859254;29;20475;-80
2024/02/26 12:31:36;;;;;;;1.53;1.10;;;8.00;98.20;;;;;;4849550;29;20577;-79
2024/02/26 12:34:04;;;;;;;1.60;1.30;;;8.00;98.20;;;;;;4863371;29;20528;-79
2024/02/26 12:36:32;;;;;;;1.53;1.10;;;7.90;98.20;;;;;;4844662;29;20518;-79
2024/02/26 12:39:01;;;;;;;1.60;1.20;;;7.90;98.20;;;;;;4859998;29;20574;-80
2024/02/26 12:41:30;;;;;;;1.60;1.20;;;7.90;98.20;;;;;;4853898;29;20512;-78
2024/02/26 12:43:58;;;;;;;1.60;1.33;;;7.90;98.20;;;;;;4864146;29;20594;-80
2024/02/26 12:46:25;;;;;;;1.60;1.20;;;7.90;98.20;;;;;;4852318;29;20615;-79
2024/02/26 12:48:54;;;;;;;1.60;1.30;;;7.90;98.20;;;;;;4861957;29;20455;-79
2024/02/26 12:51:21;;;;;;;1.57;1.20;;;7.90;98.20;;;;;;4847035;29;20534;-79
2024/02/26 12:53:50;;;;;;;1.60;1.20;;;7.90;98.20;;;;;;4863572;29;20495;-80
2024/02/26 12:56:19;;;;;;;2.70;2.50;;;7.90;98.20;;;;;;4847584;29;20486;-79
2024/02/26 12:58:47;;;;;;;1.60;1.30;;;7.90;98.20;;;;;;4863498;29;20523;-79
2024/02/26 13:01:17;;;;;;;1.60;1.20;;;7.90;98.20;;;;;;4846923;29;20534;-81